Date,TemperatureHighF,TemperatureAvgF,TemperatureLowF,DewpointHighF,DewpointAvgF,DewpointLowF,HumidityHigh,HumidityAvg,HumidityLow,PressureMaxIn,PressureMinIn,WindSpeedMaxMPH,WindSpeedAvgMPH,GustSpeedMaxMPH,PrecipitationSumIn
2013-8-1,79.7,69.9,62.9,67.0,61.3,56.0,95,77,46,29.97,29.90,13,4,23,0.00
2013-8-2,82.8,69.2,57.4,65.0,60.0,55.0,91,74,52,29.96,29.89,18,5,20,0.00
2013-8-3,80.3,71.3,63.7,68.0,64.1,56.0,95,79,53,30.04,29.90,11,3,14,0.57
2013-8-4,76.2,66.3,54.9,59.0,55.0,51.0,88,69,47,30.14,30.04,9,3,12,0.00
2013-8-5,77.2,67.8,59.7,62.0,58.5,56.0,90,74,50,30.09,29.92,8,3,12,0.03
2013-8-6,79.3,71.0,62.9,71.0,65.1,60.0,90,82,72,29.93,29.86,9,4,14,0.00
2013-8-7,84.0,75.4,70.2,73.0,70.6,68.0,95,85,67,29.89,29.81,9,4,12,0.00
2013-8-8,81.3,74.9,69.8,74.0,71.2,68.0,94,88,74,29.90,29.85,9,2,13,0.07
2013-8-9,80.9,73.2,68.4,69.0,67.1,64.0,95,82,58,30.00,29.87,6,3,9,0.21
2013-8-10,84.2,74.5,65.9,69.0,65.9,64.0,92,76,53,30.07,30.00,8,1,11,0.00
2013-8-11,81.9,73.6,65.5,70.0,65.1,61.0,94,76,50,30.07,30.01,9,2,15,0.00
2013-8-12,82.4,73.6,65.2,68.0,65.5,63.0,92,77,56,30.04,29.84,10,2,13,0.00
2013-8-13,72.0,66.6,55.1,66.0,58.0,48.0,93,75,49,30.07,29.82,18,6,21,0.00
2013-8-14,69.3,58.2,47.7,52.0,48.1,45.0,92,71,48,30.18,30.07,10,3,18,0.00
2013-8-15,72.0,60.6,49.3,55.0,50.8,47.0,93,72,49,30.17,30.08,6,1,7,0.00
2013-8-16,73.1,64.1,55.5,57.0,54.3,52.0,89,72,50,30.15,30.10,8,2,13,0.00
2013-8-17,77.5,67.7,57.7,60.0,56.7,54.0,86,69,50,30.18,30.10,13,3,13,0.00
2013-8-18,82.6,70.5,58.7,64.0,59.5,56.0,92,71,46,30.16,30.06,8,2,10,0.00
2013-8-19,84.7,72.1,60.3,66.0,60.9,57.0,89,70,45,30.11,30.02,5,1,8,0.00
2013-8-20,84.9,74.7,63.4,66.0,62.9,60.0,90,69,46,30.12,30.04,14,2,14,0.00
2013-8-21,86.0,76.2,67.8,71.0,67.2,64.0,90,75,52,30.11,29.99,8,2,16,0.00
2013-8-22,82.5,73.8,68.6,71.0,67.7,66.0,91,81,67,30.05,29.96,15,4,18,0.00
2013-8-23,82.8,71.1,62.0,68.0,64.0,61.0,96,80,51,30.11,30.02,9,3,12,0.00
2013-8-24,84.5,72.4,58.4,61.0,57.1,53.0,86,61,36,30.24,30.12,6,2,8,0.00
2013-8-25,87.5,74.3,60.5,63.0,59.9,56.0,89,64,34,30.28,30.17,13,2,16,0.00
2013-8-26,87.2,76.0,64.6,74.0,66.0,59.0,85,72,51,30.20,30.02,13,4,14,0.00
2013-8-27,90.1,79.7,71.6,75.0,70.8,68.0,92,76,49,30.04,29.90,12,4,16,0.00
2013-8-28,90.0,81.0,74.9,76.0,71.9,69.0,89,74,61,29.93,29.85,16,6,20,0.00
2013-8-29,87.8,76.8,69.5,72.0,68.9,66.0,95,78,53,30.00,29.93,8,3,11,0.00
2013-8-30,91.2,78.4,66.9,73.0,68.4,65.0,93,73,47,29.95,29.77,11,2,16,0.02
2013-8-31,87.0,76.2,69.0,74.0,68.6,66.0,92,78,55,29.80,29.72,18,4,24,0.10